Acme, Wyoming
Current Conditions -  °F | °C
As of 6:14 AM on Monday 24 Nov 2014 (Local Time) from KSHR Reporting Station
Light Snow Light Snow  
Wind Chill: 20°   Ceiling: 2600
Heat Index: 32°   Visibility: 5mi
Dew Point: 28°   Wind: 21mph
Humidity: 85%   Direction: 300°WNW
Pressure: 29.9"   Gusts: 30mph
Location:  44.8885°N, 107.104°W
Report Text: KSHR 241314Z AUTO 30018G26KT 5SM -SN BR OVC026 00/M02 A2990 RMK AO2 PK WND 30026/1308 P0001 T00001022 TSNO
Loading
Personal Weather Stations






























Interactive Weather Map New forecast layout! Learn more

10-Day Weather Forecast

Advertisements
Track Severe Weather on mobile